sensor_id;sensor_type;location;lat;lon;timestamp;P1;durP1;ratioP1;P2;durP2;ratioP2
52458;SDS011;38372;52.902;6.024;2023-04-24T00:00:34;0.60;;;0.57;;
52458;SDS011;38372;52.902;6.024;2023-04-24T00:03:01;1.05;;;0.80;;
52458;SDS011;38372;52.902;6.024;2023-04-24T00:05:28;0.70;;;0.35;;
52458;SDS011;38372;52.902;6.024;2023-04-24T00:07:53;0.30;;;0.28;;
52458;SDS011;38372;52.902;6.024;2023-04-24T00:10:20;0.30;;;0.30;;
52458;SDS011;38372;52.902;6.024;2023-04-24T00:12:46;0.50;;;0.40;;
52458;SDS011;38372;52.902;6.024;2023-04-24T00:15:12;1.13;;;0.55;;
52458;SDS011;38372;52.902;6.024;2023-04-24T00:17:38;0.98;;;0.60;;
52458;SDS011;38372;52.902;6.024;2023-04-24T00:20:04;2.20;;;0.82;;
52458;SDS011;38372;52.902;6.024;2023-04-24T00:22:32;0.75;;;0.30;;
52458;SDS011;38372;52.902;6.024;2023-04-24T00:24:58;0.82;;;0.82;;
52458;SDS011;38372;52.902;6.024;2023-04-24T00:27:24;0.55;;;0.38;;
52458;SDS011;38372;52.902;6.024;2023-04-24T00:29:50;0.50;;;0.30;;
52458;SDS011;38372;52.902;6.024;2023-04-24T00:32:16;0.28;;;0.25;;
52458;SDS011;38372;52.902;6.024;2023-04-24T00:34:42;0.82;;;0.50;;
52458;SDS011;38372;52.902;6.024;2023-04-24T00:37:08;0.30;;;0.25;;
52458;SDS011;38372;52.902;6.024;2023-04-24T00:39:34;0.43;;;0.40;;
52458;SDS011;38372;52.902;6.024;2023-04-24T00:41:59;0.60;;;0.45;;
52458;SDS011;38372;52.902;6.024;2023-04-24T00:44:26;0.80;;;0.60;;
52458;SDS011;38372;52.902;6.024;2023-04-24T00:46:53;0.30;;;0.30;;
52458;SDS011;38372;52.902;6.024;2023-04-24T00:49:22;0.47;;;0.45;;
52458;SDS011;38372;52.902;6.024;2023-04-24T00:51:48;1.08;;;0.50;;
52458;SDS011;38372;52.902;6.024;2023-04-24T00:54:14;0.22;;;0.13;;
52458;SDS011;38372;52.902;6.024;2023-04-24T00:56:41;1.20;;;0.55;;
52458;SDS011;38372;52.902;6.024;2023-04-24T00:59:08;1.10;;;0.50;;
52458;SDS011;38372;52.902;6.024;2023-04-24T01:01:34;0.20;;;0.20;;
52458;SDS011;38372;52.902;6.024;2023-04-24T01:04:01;0.52;;;0.45;;
52458;SDS011;38372;52.902;6.024;2023-04-24T01:06:28;0.95;;;0.45;;
52458;SDS011;38372;52.902;6.024;2023-04-24T01:08:56;0.35;;;0.35;;
52458;SDS011;38372;52.902;6.024;2023-04-24T01:11:23;0.60;;;0.47;;
52458;SDS011;38372;52.902;6.024;2023-04-24T01:13:50;0.55;;;0.45;;
52458;SDS011;38372;52.902;6.024;2023-04-24T01:16:16;1.30;;;0.63;;
52458;SDS011;38372;52.902;6.024;2023-04-24T01:18:43;1.05;;;0.60;;
52458;SDS011;38372;52.902;6.024;2023-04-24T01:21:09;1.38;;;0.82;;
52458;SDS011;38372;52.902;6.024;2023-04-24T01:23:38;1.30;;;0.43;;
52458;SDS011;38372;52.902;6.024;2023-04-24T01:26:05;1.40;;;0.60;;
52458;SDS011;38372;52.902;6.024;2023-04-24T01:28:31;1.95;;;0.82;;
52458;SDS011;38372;52.902;6.024;2023-04-24T01:30:56;0.85;;;0.50;;
52458;SDS011;38372;52.902;6.024;2023-04-24T01:33:23;0.70;;;0.60;;
52458;SDS011;38372;52.902;6.024;2023-04-24T01:35:49;0.90;;;0.57;;
52458;SDS011;38372;52.902;6.024;2023-04-24T01:38:15;1.23;;;0.77;;
52458;SDS011;38372;52.902;6.024;2023-04-24T01:40:41;1.85;;;0.82;;
52458;SDS011;38372;52.902;6.024;2023-04-24T01:43:07;0.85;;;0.60;;
52458;SDS011;38372;52.902;6.024;2023-04-24T01:45:32;1.90;;;0.63;;
52458;SDS011;38372;52.902;6.024;2023-04-24T01:47:58;0.93;;;0.57;;
52458;SDS011;38372;52.902;6.024;2023-04-24T01:50:25;1.70;;;0.65;;
52458;SDS011;38372;52.902;6.024;2023-04-24T01:52:51;0.70;;;0.52;;
52458;SDS011;38372;52.902;6.024;2023-04-24T01:55:17;1.67;;;1.13;;
52458;SDS011;38372;52.902;6.024;2023-04-24T01:57:43;1.17;;;0.68;;
52458;SDS011;38372;52.902;6.024;2023-04-24T02:00:08;0.95;;;0.82;;
52458;SDS011;38372;52.902;6.024;2023-04-24T02:02:36;1.52;;;0.90;;
52458;SDS011;38372;52.902;6.024;2023-04-24T02:05:05;2.50;;;1.10;;
52458;SDS011;38372;52.902;6.024;2023-04-24T02:07:32;2.25;;;1.02;;
52458;SDS011;38372;52.902;6.024;2023-04-24T02:09:58;2.95;;;1.58;;
52458;SDS011;38372;52.902;6.024;2023-04-24T02:12:24;1.00;;;0.70;;
52458;SDS011;38372;52.902;6.024;2023-04-24T02:14:49;1.45;;;1.10;;
52458;SDS011;38372;52.902;6.024;2023-04-24T02:17:15;1.73;;;0.90;;
52458;SDS011;38372;52.902;6.024;2023-04-24T02:19:41;3.97;;;1.38;;
52458;SDS011;38372;52.902;6.024;2023-04-24T02:22:07;1.65;;;0.90;;
52458;SDS011;38372;52.902;6.024;2023-04-24T02:24:33;3.10;;;1.60;;
52458;SDS011;38372;52.902;6.024;2023-04-24T02:26:59;1.83;;;0.80;;
52458;SDS011;38372;52.902;6.024;2023-04-24T02:29:25;3.25;;;1.85;;
52458;SDS011;38372;52.902;6.024;2023-04-24T02:31:51;2.30;;;1.27;;
52458;SDS011;38372;52.902;6.024;2023-04-24T02:34:16;3.30;;;1.92;;
52458;SDS011;38372;52.902;6.024;2023-04-24T02:36:42;3.10;;;1.65;;
52458;SDS011;38372;52.902;6.024;2023-04-24T02:39:08;2.67;;;1.17;;
52458;SDS011;38372;52.902;6.024;2023-04-24T02:41:33;2.45;;;1.33;;
52458;SDS011;38372;52.902;6.024;2023-04-24T02:43:59;3.22;;;1.85;;
52458;SDS011;38372;52.902;6.024;2023-04-24T02:46:25;2.35;;;1.55;;
52458;SDS011;38372;52.902;6.024;2023-04-24T02:48:51;3.50;;;1.75;;
52458;SDS011;38372;52.902;6.024;2023-04-24T02:51:16;2.35;;;1.35;;
52458;SDS011;38372;52.902;6.024;2023-04-24T02:53:42;3.22;;;1.60;;
52458;SDS011;38372;52.902;6.024;2023-04-24T02:56:08;4.03;;;1.88;;
52458;SDS011;38372;52.902;6.024;2023-04-24T02:58:37;2.38;;;1.15;;
52458;SDS011;38372;52.902;6.024;2023-04-24T03:01:03;1.80;;;1.48;;
52458;SDS011;38372;52.902;6.024;2023-04-24T03:03:29;2.92;;;1.45;;
52458;SDS011;38372;52.902;6.024;2023-04-24T03:05:55;2.88;;;1.80;;
52458;SDS011;38372;52.902;6.024;2023-04-24T03:08:22;2.05;;;1.10;;
52458;SDS011;38372;52.902;6.024;2023-04-24T03:10:48;2.22;;;1.40;;
52458;SDS011;38372;52.902;6.024;2023-04-24T03:13:15;2.33;;;1.20;;
52458;SDS011;38372;52.902;6.024;2023-04-24T03:15:41;3.13;;;1.63;;
52458;SDS011;38372;52.902;6.024;2023-04-24T03:18:07;3.85;;;1.65;;
52458;SDS011;38372;52.902;6.024;2023-04-24T03:20:33;3.78;;;1.48;;
52458;SDS011;38372;52.902;6.024;2023-04-24T03:22:59;4.20;;;1.83;;
52458;SDS011;38372;52.902;6.024;2023-04-24T03:25:24;2.58;;;0.90;;
52458;SDS011;38372;52.902;6.024;2023-04-24T03:27:50;3.88;;;1.63;;
52458;SDS011;38372;52.902;6.024;2023-04-24T03:30:16;3.38;;;1.95;;
52458;SDS011;38372;52.902;6.024;2023-04-24T03:32:42;3.78;;;1.80;;
52458;SDS011;38372;52.902;6.024;2023-04-24T03:35:08;5.43;;;1.95;;
52458;SDS011;38372;52.902;6.024;2023-04-24T03:37:34;6.93;;;1.58;;
52458;SDS011;38372;52.902;6.024;2023-04-24T03:40:00;1.83;;;1.13;;
52458;SDS011;38372;52.902;6.024;2023-04-24T03:42:26;3.50;;;1.73;;
52458;SDS011;38372;52.902;6.024;2023-04-24T03:44:52;3.13;;;1.30;;
52458;SDS011;38372;52.902;6.024;2023-04-24T03:47:18;1.55;;;0.95;;
52458;SDS011;38372;52.902;6.024;2023-04-24T03:49:43;2.80;;;1.45;;
52458;SDS011;38372;52.902;6.024;2023-04-24T03:52:09;1.77;;;0.90;;
52458;SDS011;38372;52.902;6.024;2023-04-24T03:54:35;2.47;;;0.73;;
52458;SDS011;38372;52.902;6.024;2023-04-24T03:57:01;1.35;;;0.60;;
52458;SDS011;38372;52.902;6.024;2023-04-24T03:59:27;1.55;;;0.60;;
52458;SDS011;38372;52.902;6.024;2023-04-24T04:01:52;1.48;;;0.63;;
52458;SDS011;38372;52.902;6.024;2023-04-24T04:04:18;2.90;;;0.90;;
52458;SDS011;38372;52.902;6.024;2023-04-24T04:06:44;1.20;;;0.70;;
52458;SDS011;38372;52.902;6.024;2023-04-24T04:09:11;2.80;;;0.77;;
52458;SDS011;38372;52.902;6.024;2023-04-24T04:11:37;4.40;;;1.17;;
52458;SDS011;38372;52.902;6.024;2023-04-24T04:14:03;1.33;;;0.50;;
52458;SDS011;38372;52.902;6.024;2023-04-24T04:16:29;2.72;;;1.25;;
52458;SDS011;38372;52.902;6.024;2023-04-24T04:18:54;2.03;;;1.23;;
52458;SDS011;38372;52.902;6.024;2023-04-24T04:21:20;1.75;;;0.95;;
52458;SDS011;38372;52.902;6.024;2023-04-24T04:23:46;2.50;;;1.30;;
52458;SDS011;38372;52.902;6.024;2023-04-24T04:26:13;2.25;;;1.13;;
52458;SDS011;38372;52.902;6.024;2023-04-24T04:28:39;2.05;;;1.08;;
52458;SDS011;38372;52.902;6.024;2023-04-24T04:31:05;1.50;;;0.88;;
52458;SDS011;38372;52.902;6.024;2023-04-24T04:33:32;1.58;;;0.82;;
52458;SDS011;38372;52.902;6.024;2023-04-24T04:35:58;3.13;;;1.23;;
52458;SDS011;38372;52.902;6.024;2023-04-24T04:38:25;2.03;;;0.98;;
52458;SDS011;38372;52.902;6.024;2023-04-24T04:40:54;1.77;;;0.57;;
52458;SDS011;38372;52.902;6.024;2023-04-24T04:43:22;1.35;;;0.70;;
52458;SDS011;38372;52.902;6.024;2023-04-24T04:45:51;0.95;;;0.40;;
52458;SDS011;38372;52.902;6.024;2023-04-24T04:48:17;1.63;;;0.85;;
52458;SDS011;38372;52.902;6.024;2023-04-24T04:50:43;1.25;;;0.93;;
52458;SDS011;38372;52.902;6.024;2023-04-24T04:53:09;1.00;;;0.57;;
52458;SDS011;38372;52.902;6.024;2023-04-24T04:55:36;1.75;;;0.75;;
52458;SDS011;38372;52.902;6.024;2023-04-24T04:58:02;2.00;;;0.85;;
52458;SDS011;38372;52.902;6.024;2023-04-24T05:00:28;1.70;;;0.80;;
52458;SDS011;38372;52.902;6.024;2023-04-24T05:02:58;1.52;;;0.60;;
52458;SDS011;38372;52.902;6.024;2023-04-24T05:05:25;1.15;;;0.68;;
52458;SDS011;38372;52.902;6.024;2023-04-24T05:07:50;1.52;;;0.95;;
52458;SDS011;38372;52.902;6.024;2023-04-24T05:10:16;1.20;;;0.63;;
52458;SDS011;38372;52.902;6.024;2023-04-24T05:12:42;1.58;;;0.60;;
52458;SDS011;38372;52.902;6.024;2023-04-24T05:15:08;1.42;;;0.90;;
52458;SDS011;38372;52.902;6.024;2023-04-24T05:17:34;1.85;;;0.90;;
52458;SDS011;38372;52.902;6.024;2023-04-24T05:20:01;0.45;;;0.38;;
52458;SDS011;38372;52.902;6.024;2023-04-24T05:22:30;1.08;;;0.60;;
52458;SDS011;38372;52.902;6.024;2023-04-24T05:24:56;0.40;;;0.40;;
52458;SDS011;38372;52.902;6.024;2023-04-24T05:27:22;0.85;;;0.40;;
52458;SDS011;38372;52.902;6.024;2023-04-24T05:29:48;0.30;;;0.22;;
52458;SDS011;38372;52.902;6.024;2023-04-24T05:32:14;0.20;;;0.20;;
52458;SDS011;38372;52.902;6.024;2023-04-24T05:34:39;0.57;;;0.45;;
52458;SDS011;38372;52.902;6.024;2023-04-24T05:37:05;0.57;;;0.35;;
52458;SDS011;38372;52.902;6.024;2023-04-24T05:39:34;0.43;;;0.32;;
52458;SDS011;38372;52.902;6.024;2023-04-24T05:42:00;0.85;;;0.30;;
52458;SDS011;38372;52.902;6.024;2023-04-24T05:44:26;1.48;;;0.55;;
52458;SDS011;38372;52.902;6.024;2023-04-24T05:46:52;1.05;;;0.50;;
52458;SDS011;38372;52.902;6.024;2023-04-24T05:49:20;5.72;;;1.38;;
52458;SDS011;38372;52.902;6.024;2023-04-24T05:51:45;1.48;;;0.82;;
52458;SDS011;38372;52.902;6.024;2023-04-24T05:54:11;2.22;;;1.00;;
52458;SDS011;38372;52.902;6.024;2023-04-24T05:56:37;2.25;;;0.70;;
52458;SDS011;38372;52.902;6.024;2023-04-24T05:59:04;0.75;;;0.55;;
52458;SDS011;38372;52.902;6.024;2023-04-24T06:01:29;1.50;;;0.90;;
52458;SDS011;38372;52.902;6.024;2023-04-24T06:03:56;1.20;;;0.68;;
52458;SDS011;38372;52.902;6.024;2023-04-24T06:06:23;1.90;;;0.90;;
52458;SDS011;38372;52.902;6.024;2023-04-24T06:08:49;1.63;;;1.00;;
52458;SDS011;38372;52.902;6.024;2023-04-24T06:11:15;2.10;;;1.13;;
52458;SDS011;38372;52.902;6.024;2023-04-24T06:13:41;1.45;;;0.73;;
52458;SDS011;38372;52.902;6.024;2023-04-24T06:16:06;2.13;;;0.70;;
52458;SDS011;38372;52.902;6.024;2023-04-24T06:18:32;1.23;;;0.60;;
52458;SDS011;38372;52.902;6.024;2023-04-24T06:20:58;1.35;;;0.50;;
52458;SDS011;38372;52.902;6.024;2023-04-24T06:23:24;1.40;;;0.88;;
52458;SDS011;38372;52.902;6.024;2023-04-24T06:25:50;1.30;;;0.68;;
52458;SDS011;38372;52.902;6.024;2023-04-24T06:28:17;1.63;;;0.70;;
52458;SDS011;38372;52.902;6.024;2023-04-24T06:30:43;1.50;;;0.85;;
52458;SDS011;38372;52.902;6.024;2023-04-24T06:33:09;0.73;;;0.50;;
52458;SDS011;38372;52.902;6.024;2023-04-24T06:35:35;1.50;;;0.60;;
52458;SDS011;38372;52.902;6.024;2023-04-24T06:38:02;0.25;;;0.20;;
52458;SDS011;38372;52.902;6.024;2023-04-24T06:40:29;1.40;;;0.45;;
52458;SDS011;38372;52.902;6.024;2023-04-24T06:42:55;0.75;;;0.45;;
52458;SDS011;38372;52.902;6.024;2023-04-24T06:45:21;1.08;;;0.30;;
52458;SDS011;38372;52.902;6.024;2023-04-24T06:47:46;0.77;;;0.60;;
52458;SDS011;38372;52.902;6.024;2023-04-24T06:50:12;0.35;;;0.20;;
52458;SDS011;38372;52.902;6.024;2023-04-24T06:52:38;0.20;;;0.20;;
52458;SDS011;38372;52.902;6.024;2023-04-24T06:55:04;0.57;;;0.43;;
52458;SDS011;38372;52.902;6.024;2023-04-24T06:57:30;0.35;;;0.28;;
52458;SDS011;38372;52.902;6.024;2023-04-24T06:59:56;0.40;;;0.32;;
52458;SDS011;38372;52.902;6.024;2023-04-24T07:02:22;0.28;;;0.22;;
52458;SDS011;38372;52.902;6.024;2023-04-24T07:04:48;0.52;;;0.40;;
52458;SDS011;38372;52.902;6.024;2023-04-24T07:07:17;2.13;;;0.40;;
52458;SDS011;38372;52.902;6.024;2023-04-24T07:09:43;2.83;;;0.70;;
52458;SDS011;38372;52.902;6.024;2023-04-24T07:12:10;7.82;;;2.05;;
52458;SDS011;38372;52.902;6.024;2023-04-24T07:14:37;5.85;;;1.08;;
52458;SDS011;38372;52.902;6.024;2023-04-24T07:17:03;3.85;;;1.60;;
52458;SDS011;38372;52.902;6.024;2023-04-24T07:19:30;2.75;;;1.73;;
52458;SDS011;38372;52.902;6.024;2023-04-24T07:21:56;8.90;;;2.30;;
52458;SDS011;38372;52.902;6.024;2023-04-24T07:24:23;5.40;;;2.92;;
52458;SDS011;38372;52.902;6.024;2023-04-24T07:26:50;2.78;;;1.70;;
52458;SDS011;38372;52.902;6.024;2023-04-24T07:29:17;4.95;;;2.03;;
52458;SDS011;38372;52.902;6.024;2023-04-24T07:31:43;4.75;;;2.45;;
52458;SDS011;38372;52.902;6.024;2023-04-24T07:34:08;6.57;;;2.50;;
52458;SDS011;38372;52.902;6.024;2023-04-24T07:36:35;7.65;;;2.83;;
52458;SDS011;38372;52.902;6.024;2023-04-24T07:39:01;5.15;;;3.05;;
52458;SDS011;38372;52.902;6.024;2023-04-24T07:41:26;4.13;;;1.95;;
52458;SDS011;38372;52.902;6.024;2023-04-24T07:43:53;7.97;;;2.05;;
52458;SDS011;38372;52.902;6.024;2023-04-24T07:46:19;6.43;;;2.50;;
52458;SDS011;38372;52.902;6.024;2023-04-24T07:48:45;5.60;;;2.42;;
52458;SDS011;38372;52.902;6.024;2023-04-24T07:51:13;12.23;;;2.70;;
52458;SDS011;38372;52.902;6.024;2023-04-24T07:53:40;5.55;;;2.45;;
52458;SDS011;38372;52.902;6.024;2023-04-24T07:56:06;11.93;;;4.38;;
52458;SDS011;38372;52.902;6.024;2023-04-24T07:58:32;5.45;;;3.20;;
52458;SDS011;38372;52.902;6.024;2023-04-24T08:00:58;9.13;;;2.88;;
52458;SDS011;38372;52.902;6.024;2023-04-24T08:03:23;6.72;;;2.58;;
52458;SDS011;38372;52.902;6.024;2023-04-24T08:05:49;7.95;;;3.22;;
52458;SDS011;38372;52.902;6.024;2023-04-24T08:08:16;6.80;;;2.05;;
52458;SDS011;38372;52.902;6.024;2023-04-24T08:10:42;7.57;;;3.65;;
52458;SDS011;38372;52.902;6.024;2023-04-24T08:13:08;3.70;;;2.33;;
52458;SDS011;38372;52.902;6.024;2023-04-24T08:15:34;7.07;;;3.50;;
52458;SDS011;38372;52.902;6.024;2023-04-24T08:18:00;2.78;;;1.80;;
52458;SDS011;38372;52.902;6.024;2023-04-24T08:20:26;3.72;;;2.10;;
52458;SDS011;38372;52.902;6.024;2023-04-24T08:22:51;3.45;;;1.85;;
52458;SDS011;38372;52.902;6.024;2023-04-24T08:25:17;3.92;;;2.15;;
52458;SDS011;38372;52.902;6.024;2023-04-24T08:27:44;4.72;;;1.48;;
52458;SDS011;38372;52.902;6.024;2023-04-24T08:30:10;4.45;;;2.15;;
52458;SDS011;38372;52.902;6.024;2023-04-24T08:32:36;2.42;;;1.17;;
52458;SDS011;38372;52.902;6.024;2023-04-24T08:35:02;7.63;;;1.70;;
52458;SDS011;38372;52.902;6.024;2023-04-24T08:37:28;1.80;;;1.25;;
52458;SDS011;38372;52.902;6.024;2023-04-24T08:39:54;2.40;;;1.40;;
52458;SDS011;38372;52.902;6.024;2023-04-24T08:42:20;1.48;;;1.30;;
52458;SDS011;38372;52.902;6.024;2023-04-24T08:44:47;3.30;;;1.50;;
52458;SDS011;38372;52.902;6.024;2023-04-24T08:47:14;2.60;;;1.35;;
52458;SDS011;38372;52.902;6.024;2023-04-24T08:49:41;2.65;;;1.02;;
52458;SDS011;38372;52.902;6.024;2023-04-24T08:52:08;2.10;;;1.08;;
52458;SDS011;38372;52.902;6.024;2023-04-24T08:54:34;3.33;;;1.85;;
52458;SDS011;38372;52.902;6.024;2023-04-24T08:57:01;3.13;;;1.85;;
52458;SDS011;38372;52.902;6.024;2023-04-24T08:59:28;3.65;;;1.60;;
52458;SDS011;38372;52.902;6.024;2023-04-24T09:01:55;2.22;;;1.25;;
52458;SDS011;38372;52.902;6.024;2023-04-24T09:04:21;5.55;;;1.92;;
52458;SDS011;38372;52.902;6.024;2023-04-24T09:06:50;1.40;;;1.23;;
52458;SDS011;38372;52.902;6.024;2023-04-24T09:09:17;4.05;;;1.52;;
52458;SDS011;38372;52.902;6.024;2023-04-24T09:11:44;1.92;;;1.38;;
52458;SDS011;38372;52.902;6.024;2023-04-24T09:14:10;1.83;;;1.42;;
52458;SDS011;38372;52.902;6.024;2023-04-24T09:16:36;4.43;;;0.65;;
52458;SDS011;38372;52.902;6.024;2023-04-24T09:19:02;1.65;;;1.10;;
52458;SDS011;38372;52.902;6.024;2023-04-24T09:21:31;4.18;;;1.02;;
52458;SDS011;38372;52.902;6.024;2023-04-24T09:24:03;1.20;;;0.80;;
52458;SDS011;38372;52.902;6.024;2023-04-24T09:26:31;3.28;;;0.85;;
52458;SDS011;38372;52.902;6.024;2023-04-24T09:28:59;2.25;;;1.02;;
52458;SDS011;38372;52.902;6.024;2023-04-24T09:31:26;1.73;;;1.20;;
52458;SDS011;38372;52.902;6.024;2023-04-24T09:33:55;1.10;;;0.63;;
52458;SDS011;38372;52.902;6.024;2023-04-24T09:38:57;2.72;;;0.88;;
52458;SDS011;38372;52.902;6.024;2023-04-24T09:41:27;2.67;;;1.15;;
52458;SDS011;38372;52.902;6.024;2023-04-24T09:43:56;1.65;;;0.68;;
52458;SDS011;38372;52.902;6.024;2023-04-24T09:46:30;1.42;;;0.90;;
52458;SDS011;38372;52.902;6.024;2023-04-24T09:49:07;0.68;;;0.50;;
52458;SDS011;38372;52.902;6.024;2023-04-24T09:51:35;0.60;;;0.57;;
52458;SDS011;38372;52.902;6.024;2023-04-24T09:54:03;2.15;;;0.50;;
52458;SDS011;38372;52.902;6.024;2023-04-24T09:56:36;1.05;;;0.73;;
52458;SDS011;38372;52.902;6.024;2023-04-24T09:59:05;7.50;;;0.70;;
52458;SDS011;38372;52.902;6.024;2023-04-24T10:03:57;2.03;;;1.15;;
52458;SDS011;38372;52.902;6.024;2023-04-24T10:06:29;0.82;;;0.60;;
52458;SDS011;38372;52.902;6.024;2023-04-24T10:08:57;1.50;;;0.65;;
52458;SDS011;38372;52.902;6.024;2023-04-24T10:11:26;1.23;;;0.75;;
52458;SDS011;38372;52.902;6.024;2023-04-24T10:13:52;1.67;;;0.73;;
52458;SDS011;38372;52.902;6.024;2023-04-24T10:16:19;3.03;;;1.15;;
52458;SDS011;38372;52.902;6.024;2023-04-24T10:18:47;8.77;;;0.80;;
52458;SDS011;38372;52.902;6.024;2023-04-24T10:21:14;1.60;;;0.47;;
52458;SDS011;38372;52.902;6.024;2023-04-24T10:23:40;4.03;;;0.60;;
52458;SDS011;38372;52.902;6.024;2023-04-24T10:26:08;1.30;;;0.73;;
52458;SDS011;38372;52.902;6.024;2023-04-24T10:28:36;3.50;;;0.82;;
52458;SDS011;38372;52.902;6.024;2023-04-24T10:31:02;17.42;;;1.52;;
52458;SDS011;38372;52.902;6.024;2023-04-24T10:33:29;0.40;;;0.40;;
52458;SDS011;38372;52.902;6.024;2023-04-24T10:35:56;1.67;;;0.30;;
52458;SDS011;38372;52.902;6.024;2023-04-24T10:38:24;1.67;;;0.50;;
52458;SDS011;38372;52.902;6.024;2023-04-24T10:40:56;1.95;;;1.13;;
52458;SDS011;38372;52.902;6.024;2023-04-24T10:43:33;0.43;;;0.30;;
52458;SDS011;38372;52.902;6.024;2023-04-24T10:46:03;1.58;;;1.00;;
52458;SDS011;38372;52.902;6.024;2023-04-24T10:48:31;2.70;;;0.70;;
52458;SDS011;38372;52.902;6.024;2023-04-24T10:50:57;1.95;;;0.40;;
52458;SDS011;38372;52.902;6.024;2023-04-24T10:53:24;2.17;;;0.50;;
52458;SDS011;38372;52.902;6.024;2023-04-24T10:56:02;0.50;;;0.47;;
52458;SDS011;38372;52.902;6.024;2023-04-24T10:59:05;0.45;;;0.43;;
52458;SDS011;38372;52.902;6.024;2023-04-24T11:01:25;0.70;;;0.30;;
52458;SDS011;38372;52.902;6.024;2023-04-24T11:03:56;0.55;;;0.30;;
52458;SDS011;38372;52.902;6.024;2023-04-24T11:06:30;0.60;;;0.52;;
52458;SDS011;38372;52.902;6.024;2023-04-24T11:09:09;1.00;;;0.65;;
52458;SDS011;38372;52.902;6.024;2023-04-24T11:11:43;0.63;;;0.30;;
52458;SDS011;38372;52.902;6.024;2023-04-24T11:14:10;0.55;;;0.40;;
52458;SDS011;38372;52.902;6.024;2023-04-24T11:16:47;1.50;;;0.40;;
52458;SDS011;38372;52.902;6.024;2023-04-24T11:27:13;0.35;;;0.30;;
52458;SDS011;38372;52.902;6.024;2023-04-24T11:29:58;1.50;;;0.60;;
52458;SDS011;38372;52.902;6.024;2023-04-24T11:32:30;1.20;;;0.40;;
52458;SDS011;38372;52.902;6.024;2023-04-24T11:35:03;0.43;;;0.30;;
52458;SDS011;38372;52.902;6.024;2023-04-24T11:37:45;0.20;;;0.20;;
52458;SDS011;38372;52.902;6.024;2023-04-24T11:40:14;0.57;;;0.32;;
52458;SDS011;38372;52.902;6.024;2023-04-24T11:42:44;3.10;;;0.60;;
52458;SDS011;38372;52.902;6.024;2023-04-24T11:45:12;4.05;;;0.40;;
52458;SDS011;38372;52.902;6.024;2023-04-24T11:47:38;0.35;;;0.20;;
52458;SDS011;38372;52.902;6.024;2023-04-24T11:50:05;0.30;;;0.20;;
52458;SDS011;38372;52.902;6.024;2023-04-24T11:52:33;0.20;;;0.20;;
52458;SDS011;38372;52.902;6.024;2023-04-24T11:55:02;0.73;;;0.43;;
52458;SDS011;38372;52.902;6.024;2023-04-24T11:57:29;1.63;;;0.15;;
52458;SDS011;38372;52.902;6.024;2023-04-24T12:02:25;0.55;;;0.25;;
52458;SDS011;38372;52.902;6.024;2023-04-24T12:04:52;1.35;;;0.22;;
52458;SDS011;38372;52.902;6.024;2023-04-24T12:07:18;1.40;;;0.45;;
52458;SDS011;38372;52.902;6.024;2023-04-24T12:09:49;2.50;;;0.32;;
52458;SDS011;38372;52.902;6.024;2023-04-24T12:14:42;0.15;;;0.13;;
52458;SDS011;38372;52.902;6.024;2023-04-24T12:17:34;3.42;;;0.50;;
52458;SDS011;38372;52.902;6.024;2023-04-24T12:20:04;3.35;;;0.20;;
52458;SDS011;38372;52.902;6.024;2023-04-24T12:22:51;0.75;;;0.45;;
52458;SDS011;38372;52.902;6.024;2023-04-24T12:25:22;0.30;;;0.28;;
52458;SDS011;38372;52.902;6.024;2023-04-24T12:27:53;0.22;;;0.22;;
52458;SDS011;38372;52.902;6.024;2023-04-24T12:30:39;2.90;;;0.63;;
52458;SDS011;38372;52.902;6.024;2023-04-24T12:33:06;0.88;;;0.20;;
52458;SDS011;38372;52.902;6.024;2023-04-24T12:35:32;4.47;;;0.80;;
52458;SDS011;38372;52.902;6.024;2023-04-24T12:38:07;1.75;;;0.65;;
52458;SDS011;38372;52.902;6.024;2023-04-24T12:40:38;0.88;;;0.30;;
52458;SDS011;38372;52.902;6.024;2023-04-24T12:43:25;0.28;;;0.20;;
52458;SDS011;38372;52.902;6.024;2023-04-24T12:45:50;0.10;;;0.10;;
52458;SDS011;38372;52.902;6.024;2023-04-24T12:48:15;1.42;;;0.30;;
52458;SDS011;38372;52.902;6.024;2023-04-24T12:50:41;1.58;;;0.40;;
52458;SDS011;38372;52.902;6.024;2023-04-24T12:53:08;0.45;;;0.35;;
52458;SDS011;38372;52.902;6.024;2023-04-24T12:55:34;1.73;;;0.52;;
52458;SDS011;38372;52.902;6.024;2023-04-24T12:58:00;6.00;;;1.70;;
52458;SDS011;38372;52.902;6.024;2023-04-24T13:00:27;0.68;;;0.38;;
52458;SDS011;38372;52.902;6.024;2023-04-24T13:02:52;1.73;;;0.95;;
52458;SDS011;38372;52.902;6.024;2023-04-24T13:05:20;1.40;;;0.60;;
52458;SDS011;38372;52.902;6.024;2023-04-24T13:07:46;1.58;;;0.85;;
52458;SDS011;38372;52.902;6.024;2023-04-24T13:10:11;0.38;;;0.20;;
52458;SDS011;38372;52.902;6.024;2023-04-24T13:12:38;0.28;;;0.28;;
52458;SDS011;38372;52.902;6.024;2023-04-24T13:15:05;0.40;;;0.40;;
52458;SDS011;38372;52.902;6.024;2023-04-24T13:17:32;1.15;;;0.43;;
52458;SDS011;38372;52.902;6.024;2023-04-24T13:19:58;1.45;;;0.60;;
52458;SDS011;38372;52.902;6.024;2023-04-24T13:22:24;0.57;;;0.32;;
52458;SDS011;38372;52.902;6.024;2023-04-24T13:24:50;0.77;;;0.50;;
52458;SDS011;38372;52.902;6.024;2023-04-24T13:27:16;0.25;;;0.17;;
52458;SDS011;38372;52.902;6.024;2023-04-24T13:29:43;1.00;;;0.55;;
52458;SDS011;38372;52.902;6.024;2023-04-24T13:32:09;0.57;;;0.45;;
52458;SDS011;38372;52.902;6.024;2023-04-24T13:34:35;3.10;;;0.60;;
52458;SDS011;38372;52.902;6.024;2023-04-24T13:37:02;0.90;;;0.40;;
52458;SDS011;38372;52.902;6.024;2023-04-24T13:39:28;0.70;;;0.65;;
52458;SDS011;38372;52.902;6.024;2023-04-24T13:41:54;0.85;;;0.63;;
52458;SDS011;38372;52.902;6.024;2023-04-24T13:44:20;0.55;;;0.40;;
52458;SDS011;38372;52.902;6.024;2023-04-24T13:46:48;0.82;;;0.50;;
52458;SDS011;38372;52.902;6.024;2023-04-24T13:49:16;0.55;;;0.28;;
52458;SDS011;38372;52.902;6.024;2023-04-24T13:51:43;3.00;;;0.40;;
52458;SDS011;38372;52.902;6.024;2023-04-24T13:54:09;0.30;;;0.30;;
52458;SDS011;38372;52.902;6.024;2023-04-24T13:56:35;0.90;;;0.65;;
52458;SDS011;38372;52.902;6.024;2023-04-24T13:59:01;2.60;;;0.85;;
52458;SDS011;38372;52.902;6.024;2023-04-24T14:01:27;2.90;;;0.63;;
52458;SDS011;38372;52.902;6.024;2023-04-24T14:03:53;0.35;;;0.35;;
52458;SDS011;38372;52.902;6.024;2023-04-24T14:06:20;3.55;;;0.50;;
52458;SDS011;38372;52.902;6.024;2023-04-24T14:08:46;0.68;;;0.47;;
52458;SDS011;38372;52.902;6.024;2023-04-24T14:11:13;0.43;;;0.28;;
52458;SDS011;38372;52.902;6.024;2023-04-24T14:13:40;2.40;;;0.82;;
52458;SDS011;38372;52.902;6.024;2023-04-24T14:16:07;4.47;;;0.45;;
52458;SDS011;38372;52.902;6.024;2023-04-24T14:18:33;1.60;;;0.55;;
52458;SDS011;38372;52.902;6.024;2023-04-24T14:20:58;4.53;;;0.70;;
52458;SDS011;38372;52.902;6.024;2023-04-24T14:23:26;3.13;;;0.55;;
52458;SDS011;38372;52.902;6.024;2023-04-24T14:25:52;0.63;;;0.40;;
52458;SDS011;38372;52.902;6.024;2023-04-24T14:28:21;0.77;;;0.30;;
52458;SDS011;38372;52.902;6.024;2023-04-24T14:30:47;1.17;;;0.32;;
52458;SDS011;38372;52.902;6.024;2023-04-24T14:33:13;1.08;;;0.57;;
52458;SDS011;38372;52.902;6.024;2023-04-24T14:35:40;2.08;;;0.60;;
52458;SDS011;38372;52.902;6.024;2023-04-24T14:38:07;4.15;;;1.75;;
52458;SDS011;38372;52.902;6.024;2023-04-24T14:40:33;8.18;;;1.33;;
52458;SDS011;38372;52.902;6.024;2023-04-24T14:42:59;6.90;;;1.73;;
52458;SDS011;38372;52.902;6.024;2023-04-24T14:45:28;8.40;;;1.42;;
52458;SDS011;38372;52.902;6.024;2023-04-24T14:47:54;4.88;;;1.13;;
52458;SDS011;38372;52.902;6.024;2023-04-24T14:50:20;3.75;;;1.15;;
52458;SDS011;38372;52.902;6.024;2023-04-24T14:52:46;1.23;;;0.85;;
52458;SDS011;38372;52.902;6.024;2023-04-24T14:55:12;1.02;;;0.82;;
52458;SDS011;38372;52.902;6.024;2023-04-24T14:57:39;1.60;;;1.08;;
52458;SDS011;38372;52.902;6.024;2023-04-24T15:00:06;1.58;;;0.43;;
52458;SDS011;38372;52.902;6.024;2023-04-24T15:02:37;1.48;;;0.35;;
52458;SDS011;38372;52.902;6.024;2023-04-24T15:05:07;0.95;;;0.60;;